Time;durP1;ratioP1;P1;durP2;ratioP2;P2;SDS_P1;SDS_P2;PMS_P1;PMS_P2;Temp;Humidity;BMP_temperature;BMP_pressure;BME280_temperature;BME280_humidity;BME280_pressure;Samples;Min_cycle;Max_cycle;Signal;HPM_P1;HPM_P2
2022/07/15 00:02:08;;;;;;;9.10;2.73;;;;;;;-145.18;100.00;46660.41;5091774;28;20032;-71
2022/07/15 00:04:34;;;;;;;14.60;3.00;;;;;;;-145.18;100.00;46660.41;5092112;28;20056;-71
2022/07/15 00:07:00;;;;;;;12.67;3.30;;;;;;;-145.18;100.00;46660.41;5092006;28;20032;-71
2022/07/15 00:12:11;;;;;;;10.10;3.07;;;;;;;-145.18;100.00;46660.41;5091708;28;20058;-71
2022/07/15 00:14:37;;;;;;;9.77;2.67;;;;;;;-145.18;100.00;46660.41;5092131;28;20546;-71
2022/07/15 00:17:02;;;;;;;6.67;2.40;;;;;;;-145.18;100.00;46660.41;5091538;28;20031;-71
2022/07/15 00:19:28;;;;;;;10.93;2.70;;;;;;;-145.18;100.00;46660.41;5091961;28;20036;-71
2022/07/15 00:21:53;;;;;;;10.40;3.30;;;;;;;-145.18;100.00;46660.41;5091816;28;20043;-71
2022/07/15 00:24:19;;;;;;;10.73;2.87;;;;;;;-145.18;100.00;46660.41;5091857;28;20064;-71
2022/07/15 00:26:44;;;;;;;12.13;2.47;;;;;;;-145.18;100.00;46660.41;5091434;28;20043;-72
2022/07/15 00:29:10;;;;;;;11.73;2.47;;;;;;;-145.18;100.00;46660.41;5091364;28;20103;-71
2022/07/15 00:31:36;;;;;;;14.60;3.00;;;;;;;-145.18;100.00;46660.41;5091487;28;20043;-71
2022/07/15 00:34:01;;;;;;;16.73;3.37;;;;;;;-145.18;100.00;46660.41;5091700;28;20028;-71
2022/07/15 00:36:26;;;;;;;13.10;3.63;;;;;;;-145.18;100.00;46660.41;5091161;28;20518;-71
2022/07/15 00:38:52;;;;;;;9.53;2.80;;;;;;;-145.18;100.00;46660.41;5091550;28;20039;-71
2022/07/15 00:41:17;;;;;;;11.60;2.53;;;;;;;-145.18;100.00;46660.41;5090744;28;20050;-71
2022/07/15 00:43:43;;;;;;;14.93;3.33;;;;;;;-145.18;100.00;46660.41;5091765;28;20032;-71
2022/07/15 00:46:08;;;;;;;8.93;2.60;;;;;;;-145.18;100.00;46660.41;5091321;28;20059;-71
2022/07/15 00:48:34;;;;;;;10.97;2.70;;;;;;;-145.18;100.00;46660.41;5056786;28;20070;-71
2022/07/15 00:50:59;;;;;;;6.20;2.50;;;;;;;-145.18;100.00;46660.41;5073043;28;20107;-71
2022/07/15 00:53:28;;;;;;;9.83;2.57;;;;;;;-145.18;100.00;46660.41;5090796;28;20071;-71
2022/07/15 00:55:59;;;;;;;7.33;2.83;;;;;;;-145.18;100.00;46660.41;5073083;28;20396;-72
2022/07/15 00:58:26;;;;;;;10.13;2.80;;;;;;;-145.18;100.00;46660.41;5090920;28;20028;-71
2022/07/15 01:00:53;;;;;;;9.73;2.20;;;;;;;-145.18;100.00;46660.41;5091217;28;20056;-71
2022/07/15 01:03:19;;;;;;;8.37;2.70;;;;;;;-145.18;100.00;46660.41;5090125;28;20051;-71
2022/07/15 01:05:46;;;;;;;9.60;2.63;;;;;;;-145.18;100.00;46660.41;5091198;28;20020;-71
2022/07/15 01:08:12;;;;;;;9.33;2.37;;;;;;;-145.18;100.00;46660.41;5090644;28;20028;-71
2022/07/15 01:10:38;;;;;;;4.60;2.13;;;;;;;-145.18;100.00;46660.41;5071996;28;20035;-71
2022/07/15 01:13:04;;;;;;;11.20;2.63;;;;;;;-145.18;100.00;46660.41;5090578;28;20031;-72
2022/07/15 01:15:32;;;;;;;8.97;2.50;;;;;;;-145.18;100.00;46660.41;5090965;28;20385;-71
2022/07/15 01:17:59;;;;;;;13.33;3.27;;;;;;;-145.18;100.00;46660.41;5090798;28;20032;-72
2022/07/15 01:20:25;;;;;;;9.87;2.50;;;;;;;-145.18;100.00;46660.41;5090648;28;20048;-71
2022/07/15 01:22:50;;;;;;;9.23;2.10;;;;;;;-145.18;100.00;46660.41;5090774;28;20095;-72
2022/07/15 01:25:15;;;;;;;11.33;2.80;;;;;;;-145.18;100.00;46660.41;5090697;28;20027;-71
2022/07/15 01:27:41;;;;;;;14.47;2.60;;;;;;;-145.18;100.00;46660.41;5090378;28;20118;-71
2022/07/15 01:30:07;;;;;;;7.70;2.63;;;;;;;-145.18;100.00;46660.41;5072657;28;20549;-72
2022/07/15 01:32:33;;;;;;;8.47;2.40;;;;;;;-145.18;100.00;46660.41;5090234;28;20027;-71
2022/07/15 01:34:59;;;;;;;10.17;3.20;;;;;;;-145.18;100.00;46660.41;5090822;28;20023;-71
2022/07/15 01:37:24;;;;;;;9.17;2.60;;;;;;;-145.18;100.00;46660.41;5090008;28;20398;-71
2022/07/15 01:39:50;;;;;;;10.27;3.13;;;;;;;-145.18;100.00;46660.41;5090541;28;20047;-71
2022/07/15 01:42:15;;;;;;;11.50;2.43;;;;;;;-145.18;100.00;46660.41;5090083;28;20020;-71
2022/07/15 01:44:41;;;;;;;14.33;2.40;;;;;;;-145.18;100.00;46660.41;5090639;28;20532;-71
2022/07/15 01:47:06;;;;;;;10.60;2.57;;;;;;;-145.18;100.00;46660.41;5089824;28;20031;-71
2022/07/15 01:49:32;;;;;;;9.17;2.30;;;;;;;-145.18;100.00;46660.41;5090438;28;20089;-71
2022/07/15 01:51:59;;;;;;;8.87;2.43;;;;;;;-145.18;100.00;46660.41;5090206;28;20535;-71
2022/07/15 01:54:27;;;;;;;11.33;2.30;;;;;;;-145.18;100.00;46660.41;5090349;28;20086;-71
2022/07/15 01:56:54;;;;;;;9.47;2.60;;;;;;;-145.18;100.00;46660.41;5089923;28;20028;-71
2022/07/15 01:59:22;;;;;;;11.17;2.80;;;;;;;-145.18;100.00;46660.41;5090066;28;20032;-71
2022/07/15 02:01:48;;;;;;;11.30;3.30;;;;;;;-145.18;100.00;46660.41;5290848;22;20445;-72
2022/07/15 02:04:14;;;;;;;8.70;2.83;;;;;;;-145.18;100.00;46660.41;5098811;28;20048;-72
2022/07/15 02:06:40;;;;;;;11.63;3.07;;;;;;;-145.18;100.00;46660.41;5109478;28;20491;-72
2022/07/15 02:09:06;;;;;;;4.73;2.10;;;;;;;-145.18;100.00;46660.41;5109982;28;20071;-72
2022/07/15 02:11:32;;;;;;;6.57;2.80;;;;;;;-145.18;100.00;46660.41;5110750;28;20126;-71
2022/07/15 02:13:59;;;;;;;7.00;3.00;;;;;;;-145.18;100.00;46660.41;5109982;28;20027;-71
2022/07/15 02:16:29;;;;;;;8.50;2.20;;;;;;;-145.18;100.00;46660.41;5110866;28;20454;-72
2022/07/15 02:18:54;;;;;;;9.50;2.13;;;;;;;-145.18;100.00;46660.41;5110061;28;20482;-71
2022/07/15 02:21:20;;;;;;;7.37;2.40;;;;;;;-145.18;100.00;46660.41;5112392;28;20055;-72
2022/07/15 02:23:46;;;;;;;7.10;2.60;;;;;;;-145.18;100.00;46660.41;5114164;28;20099;-71
2022/07/15 02:26:12;;;;;;;7.70;2.40;;;;;;;-145.18;100.00;46660.41;5114212;28;20039;-71
2022/07/15 02:28:37;;;;;;;5.07;2.37;;;;;;;-145.18;100.00;46660.41;5114550;28;20035;-71
2022/07/15 02:31:03;;;;;;;11.20;2.40;;;;;;;-145.18;100.00;46660.41;5114570;28;20487;-72
2022/07/15 02:33:28;;;;;;;7.70;2.67;;;;;;;-145.18;100.00;46660.41;5114054;28;20096;-72
2022/07/15 02:35:54;;;;;;;10.07;2.40;;;;;;;-145.18;100.00;46660.41;5114092;28;20040;-72
2022/07/15 02:38:21;;;;;;;10.63;2.93;;;;;;;-145.18;100.00;46660.41;5114388;28;20118;-72
2022/07/15 02:40:46;;;;;;;7.20;2.20;;;;;;;-145.18;100.00;46660.41;5114282;28;20053;-72
2022/07/15 02:43:12;;;;;;;8.53;2.80;;;;;;;-145.18;100.00;46660.41;5113789;28;20024;-72
2022/07/15 02:45:38;;;;;;;8.00;2.60;;;;;;;-145.18;100.00;46660.41;5114038;28;20039;-72
2022/07/15 02:48:04;;;;;;;8.13;2.70;;;;;;;-145.18;100.00;46660.41;5113532;28;20131;-71
2022/07/15 02:50:30;;;;;;;8.47;2.63;;;;;;;-145.18;100.00;46660.41;5114317;28;20052;-72
2022/07/15 02:52:55;;;;;;;7.37;2.63;;;;;;;-145.18;100.00;46660.41;5113836;28;20437;-72
2022/07/15 02:55:21;;;;;;;11.10;2.60;;;;;;;-145.18;100.00;46660.41;5114019;28;20479;-72
2022/07/15 02:57:46;;;;;;;10.70;3.43;;;;;;;-145.18;100.00;46660.41;5113449;28;20030;-72
2022/07/15 03:00:17;;;;;;;14.20;2.70;;;;;;;-145.18;100.00;46660.41;5114061;28;20115;-72
2022/07/15 03:02:43;;;;;;;7.43;2.30;;;;;;;-145.18;100.00;46660.41;5113306;28;20065;-72
2022/07/15 03:05:09;;;;;;;7.10;2.37;;;;;;;-145.18;100.00;46660.41;5113693;28;20028;-72
2022/07/15 03:07:35;;;;;;;8.13;2.30;;;;;;;-145.18;100.00;46660.41;5072881;28;20060;-71
2022/07/15 03:10:01;;;;;;;5.23;2.07;;;;;;;-145.18;100.00;46660.41;5073176;28;20109;-72
2022/07/15 03:12:26;;;;;;;6.73;2.80;;;;;;;-145.18;100.00;46660.41;5072741;28;20488;-72
2022/07/15 03:14:51;;;;;;;6.57;2.83;;;;;;;-145.18;100.00;46660.41;5072977;28;20058;-72
2022/07/15 03:17:17;;;;;;;7.80;2.67;;;;;;;-145.18;100.00;46660.41;5054523;28;20115;-72
2022/07/15 03:19:43;;;;;;;5.10;2.07;;;;;;;-145.18;100.00;46660.41;5073202;28;20037;-71
2022/07/15 03:22:08;;;;;;;7.57;2.40;;;;;;;-145.18;100.00;46660.41;5054475;28;20045;-71
2022/07/15 03:24:34;;;;;;;6.10;2.10;;;;;;;-145.18;100.00;46660.41;5073030;28;20036;-71
2022/07/15 03:26:59;;;;;;;7.40;2.20;;;;;;;-145.18;100.00;46660.41;5072512;28;20499;-71
2022/07/15 03:29:24;;;;;;;7.70;2.37;;;;;;;-145.18;100.00;46660.41;5072789;28;20488;-72
2022/07/15 03:31:50;;;;;;;11.20;2.37;;;;;;;-145.18;100.00;46660.41;5054679;28;20061;-71
2022/07/15 03:34:16;;;;;;;5.70;2.20;;;;;;;-145.18;100.00;46660.41;5071318;28;20119;-71
2022/07/15 03:36:41;;;;;;;5.63;2.10;;;;;;;-145.18;100.00;46658.44;5072955;28;20159;-71
2022/07/15 03:39:08;;;;;;;7.13;2.80;;;;;;;-145.18;100.00;46660.41;5071919;28;20039;-71
2022/07/15 03:41:34;;;;;;;7.50;2.60;;;;;;;-145.18;100.00;46660.41;5072739;28;20040;-72
2022/07/15 03:44:01;;;;;;;5.47;2.03;;;;;;;-145.18;100.00;46660.41;5072388;28;20568;-71
2022/07/15 03:46:26;;;;;;;9.00;2.63;;;;;;;-145.18;100.00;46660.41;5072688;28;20033;-72
2022/07/15 03:48:52;;;;;;;6.83;2.63;;;;;;;-145.18;100.00;46660.41;5071553;28;20040;-72
2022/07/15 03:51:18;;;;;;;8.33;2.63;;;;;;;-145.18;100.00;46660.41;5072540;28;20111;-71
2022/07/15 03:53:43;;;;;;;12.80;3.27;;;;;;;-145.18;100.00;46660.41;5072178;28;20535;-71
2022/07/15 03:56:09;;;;;;;5.80;2.17;;;;;;;-145.18;100.00;46660.41;5072706;28;20029;-71
2022/07/15 03:58:34;;;;;;;6.60;2.00;;;;;;;-145.18;100.00;46660.41;5071933;28;20040;-71
2022/07/15 04:00:59;;;;;;;9.60;2.40;;;;;;;-145.18;100.00;46660.41;5054517;28;20104;-72
2022/07/15 04:03:25;;;;;;;6.50;2.47;;;;;;;-145.18;100.00;46660.41;5071469;28;20686;-71
2022/07/15 04:05:50;;;;;;;7.80;1.90;;;;;;;-145.18;100.00;46660.41;5072466;28;20570;-71
2022/07/15 04:08:16;;;;;;;6.17;2.63;;;;;;;-145.18;100.00;46660.41;5071795;28;20027;-72
2022/07/15 04:10:41;;;;;;;6.87;2.13;;;;;;;-145.18;100.00;46660.41;5054037;28;20115;-72
2022/07/15 04:13:07;;;;;;;4.10;2.27;;;;;;;-145.18;100.00;46660.41;5071528;28;20435;-72
2022/07/15 04:15:32;;;;;;;9.23;2.13;;;;;;;-145.18;100.00;46660.41;5071765;28;20143;-71
2022/07/15 04:17:58;;;;;;;10.50;2.57;;;;;;;-145.18;100.00;46660.41;5071421;28;20542;-72
2022/07/15 04:20:24;;;;;;;7.77;2.63;;;;;;;-145.18;100.00;46660.41;5071586;28;20392;-71
2022/07/15 04:22:50;;;;;;;12.60;3.53;;;;;;;-145.18;100.00;46660.41;5071384;28;20048;-71
2022/07/15 04:25:18;;;;;;;7.13;2.70;;;;;;;-145.18;100.00;46660.41;5071627;28;20064;-72
2022/07/15 04:27:44;;;;;;;5.87;2.23;;;;;;;-145.18;100.00;46660.41;5089459;28;20097;-72
2022/07/15 04:30:10;;;;;;;6.27;1.97;;;;;;;-145.18;100.00;46660.41;5091148;28;20024;-72
2022/07/15 04:32:36;;;;;;;6.33;2.30;;;;;;;-145.18;100.00;46660.41;5090908;28;20016;-71
2022/07/15 04:35:02;;;;;;;11.00;3.63;;;;;;;-145.18;100.00;46660.41;5091025;28;20390;-72
2022/07/15 04:37:28;;;;;;;5.87;2.30;;;;;;;-145.18;100.00;46658.44;5091182;28;20139;-72
2022/07/15 04:39:54;;;;;;;6.63;2.60;;;;;;;-145.18;100.00;46658.44;5091332;28;20047;-72
2022/07/15 04:42:20;;;;;;;7.93;2.40;;;;;;;-145.18;100.00;46660.41;5091664;28;20024;-71
2022/07/15 04:44:47;;;;;;;11.30;2.40;;;;;;;-145.18;100.00;46656.50;5087332;28;20032;-72
2022/07/15 04:47:12;;;;;;;7.00;2.17;;;;;;;-145.18;100.00;46658.44;5068938;28;20028;-72
2022/07/15 04:52:21;;;;;;;7.17;2.20;;;;;;;-145.18;100.00;46660.41;5071054;28;20435;-72
2022/07/15 04:54:47;;;;;;;12.20;2.17;;;;;;;-145.18;100.00;46660.41;5070954;28;20036;-72
2022/07/15 04:57:12;;;;;;;8.10;2.20;;;;;;;-145.18;100.00;46658.44;5069812;28;20512;-72
2022/07/15 04:59:38;;;;;;;8.77;2.30;;;;;;;-145.18;100.00;46660.41;5069794;28;20099;-72
2022/07/15 05:02:03;;;;;;;14.33;2.60;;;;;;;-145.18;100.00;46660.41;5070668;28;20060;-72
2022/07/15 05:04:28;;;;;;;9.33;2.30;;;;;;;-145.18;100.00;46658.44;5070646;28;20032;-73
2022/07/15 05:06:54;;;;;;;6.00;1.93;;;;;;;-145.18;100.00;46658.44;5070450;28;20044;-72
2022/07/15 05:09:19;;;;;;;9.80;2.60;;;;;;;-145.18;100.00;46656.50;5073568;28;20468;-72
2022/07/15 05:11:45;;;;;;;11.77;2.07;;;;;;;-145.18;100.00;46656.50;5090050;28;20040;-72
2022/07/15 05:14:10;;;;;;;10.43;2.00;;;;;;;-145.18;100.00;46650.63;5090292;28;20057;-72
2022/07/15 05:16:36;;;;;;;14.33;2.70;;;;;;;-145.18;100.00;46652.59;5090730;28;20068;-73
2022/07/15 05:19:01;;;;;;;9.77;2.40;;;;;;;-145.18;100.00;46654.53;5090509;28;20767;-73
2022/07/15 05:21:27;;;;;;;15.37;2.23;;;;;;;-145.18;100.00;46654.53;5091013;28;20548;-73
2022/07/15 05:23:52;;;;;;;14.77;2.33;;;;;;;-145.18;100.00;46648.69;5089814;28;20431;-73
2022/07/15 05:26:18;;;;;;;7.27;2.63;;;;;;;-145.18;100.00;46615.47;5090598;28;20118;-73
2022/07/15 05:28:44;;;;;;;10.53;2.07;;;;;;;-145.18;100.00;46652.59;5071616;28;20400;-72
2022/07/15 05:31:10;;;;;;;6.83;1.70;;;;;;;-145.18;100.00;46613.50;5089849;28;20035;-73
2022/07/15 05:33:35;;;;;;;5.33;1.40;;;;;;;-145.18;100.00;46652.59;5089517;28;20540;-73
2022/07/15 05:36:00;;;;;;;13.30;1.90;;;;;;;-145.18;100.00;46617.41;5090317;28;20531;-73
2022/07/15 05:38:26;;;;;;;6.53;1.50;;;;;;;-145.18;100.00;46615.47;5089125;28;20095;-72
2022/07/15 05:40:51;;;;;;;6.87;1.30;;;;;;;-145.18;100.00;46613.50;5090375;28;20035;-73
2022/07/15 05:43:16;;;;;;;8.10;1.60;;;;;;;-145.18;100.00;46615.47;5089633;28;20491;-73
2022/07/15 05:45:42;;;;;;;5.13;1.30;;;;;;;-145.18;100.00;46617.41;5090198;28;20036;-72
2022/07/15 05:48:08;;;;;;;8.03;1.23;;;;;;;-145.18;100.00;46623.28;5089550;28;20107;-72
2022/07/15 05:50:33;;;;;;;9.50;1.37;;;;;;;-145.18;100.00;46625.22;5090027;28;20105;-73
2022/07/15 05:52:59;;;;;;;4.63;0.93;;;;;;;-145.18;100.00;46625.22;5089604;28;20040;-73
2022/07/15 05:55:24;;;;;;;7.00;1.23;;;;;;;-145.18;100.00;46627.19;5089659;28;20040;-73
2022/07/15 05:57:50;;;;;;;6.33;0.90;;;;;;;-145.18;100.00;46631.09;5089727;28;20549;-72
2022/07/15 06:00:16;;;;;;;10.90;1.67;;;;;;;-145.18;100.00;46635.00;5090074;28;20036;-73
2022/07/15 06:02:42;;;;;;;5.03;0.80;;;;;;;-145.18;100.00;46635.00;5071479;28;20127;-72
2022/07/15 06:05:08;;;;;;;5.60;0.80;;;;;;;-145.18;100.00;46640.88;5089931;28;20035;-73
2022/07/15 06:07:33;;;;;;;11.10;0.90;;;;;;;-145.18;100.00;46644.78;5089478;28;20090;-73
2022/07/15 06:09:59;;;;;;;3.47;0.70;;;;;;;-145.18;100.00;46648.69;5077035;28;20037;-73
2022/07/15 06:12:24;;;;;;;5.00;1.00;;;;;;;-145.18;100.00;46650.63;5073303;28;20441;-73
2022/07/15 06:14:50;;;;;;;8.57;0.90;;;;;;;-145.18;100.00;46646.72;5089453;28;20039;-72
2022/07/15 06:17:15;;;;;;;4.77;1.00;;;;;;;-145.18;100.00;46648.69;5086667;28;20039;-71
2022/07/15 06:19:40;;;;;;;8.13;1.00;;;;;;;-145.18;100.00;46652.59;5089328;28;20476;-73
2022/07/15 06:22:06;;;;;;;5.70;1.00;;;;;;;-145.18;100.00;46648.69;5081484;28;20036;-72
2022/07/15 06:24:32;;;;;;;3.90;1.03;;;;;;;-145.18;100.00;46656.50;5070829;28;20119;-72
2022/07/15 06:26:57;;;;;;;9.23;1.23;;;;;;;-145.18;100.00;46648.69;5059174;28;20118;-72
2022/07/15 06:29:23;;;;;;;3.83;1.00;;;;;;;-145.18;100.00;46650.63;5089162;28;20044;-72
2022/07/15 06:31:48;;;;;;;4.43;1.00;;;;;;;-145.18;100.00;46636.94;5089821;28;20470;-72
2022/07/15 06:34:14;;;;;;;6.67;1.17;;;;;;;-145.18;100.00;46629.13;5089133;28;20043;-72
2022/07/15 06:36:39;;;;;;;4.40;0.90;;;;;;;-145.18;100.00;46633.06;5071772;28;20494;-72
2022/07/15 06:39:04;;;;;;;10.53;1.50;;;;;;;-145.18;100.00;46623.28;5088998;28;20040;-72
2022/07/15 06:41:31;;;;;;;8.10;1.00;;;;;;;-145.18;100.00;46627.19;5089628;28;20107;-72
2022/07/15 06:43:57;;;;;;;5.93;0.90;;;;;;;-145.18;100.00;46584.22;5089038;28;20484;-72
2022/07/15 06:46:22;;;;;;;5.17;0.80;;;;;;;-145.18;100.00;46613.50;5089974;28;20024;-72
2022/07/15 06:48:48;;;;;;;10.00;1.40;;;;;;;-145.18;100.00;46619.38;5089343;28;20035;-72
2022/07/15 06:51:13;;;;;;;7.73;1.00;;;;;;;-145.18;100.00;46597.88;5089096;28;20455;-72
2022/07/15 06:53:38;;;;;;;4.17;0.90;;;;;;;-145.18;100.00;46582.25;5089220;28;20043;-72
2022/07/15 06:56:04;;;;;;;11.47;0.90;;;;;;;-145.18;100.00;46621.31;5089200;28;20043;-72
2022/07/15 06:58:29;;;;;;;4.73;0.70;;;;;;;-145.18;100.00;46636.94;5089426;28;20631;-72
2022/07/15 07:00:55;;;;;;;7.00;0.90;;;;;;;-145.18;100.00;46640.88;5089570;28;20043;-72
2022/07/15 07:03:20;;;;;;;6.77;1.00;;;;;;;-145.18;100.00;46633.06;5088587;28;20504;-72
2022/07/15 07:05:46;;;;;;;6.67;1.43;;;;;;;-145.18;100.00;46601.78;5070069;28;20039;-72
2022/07/15 07:08:11;;;;;;;4.70;1.03;;;;;;;-145.18;100.00;46595.94;5070227;28;20028;-72
2022/07/15 07:10:37;;;;;;;3.83;0.73;;;;;;;-145.18;100.00;46613.50;5073035;28;20075;-72
2022/07/15 07:13:02;;;;;;;5.90;1.10;;;;;;;-145.18;100.00;46566.63;5072164;28;20506;-72
2022/07/15 07:15:27;;;;;;;8.13;1.20;;;;;;;-145.18;100.00;46562.72;5072475;28;20461;-72
2022/07/15 07:17:53;;;;;;;7.47;1.70;;;;;;;-145.18;100.00;46621.31;5077286;28;20078;-72
2022/07/15 07:20:19;;;;;;;7.60;0.87;;;;;;;-145.18;100.00;46564.69;5074969;28;20032;-71
2022/07/15 07:22:44;;;;;;;9.57;1.13;;;;;;;-145.18;100.00;46570.53;5092863;28;20040;-71
2022/07/15 07:25:09;;;;;;;5.77;0.97;;;;;;;-145.18;100.00;46556.88;5092437;28;20036;-72
2022/07/15 07:27:35;;;;;;;6.37;0.90;;;;;;;-145.18;100.00;46531.47;5092703;28;20062;-72
2022/07/15 07:30:02;;;;;;;4.10;0.80;;;;;;;-145.18;100.00;46570.53;5092668;28;20058;-72
2022/07/15 07:32:28;;;;;;;4.13;1.00;;;;;;;-145.18;100.00;46570.53;5093136;28;20044;-72
2022/07/15 07:34:53;;;;;;;3.80;0.80;;;;;;;-145.18;100.00;46580.31;5092489;28;20040;-72
2022/07/15 07:37:19;;;;;;;6.00;0.90;;;;;;;-145.18;100.00;46533.44;5092302;28;20063;-72
2022/07/15 07:39:44;;;;;;;8.47;0.80;;;;;;;-145.18;100.00;46531.47;5092097;28;20063;-72
2022/07/15 07:42:09;;;;;;;8.40;1.47;;;;;;;-145.18;100.00;46525.63;5081708;28;20040;-72
2022/07/15 07:44:36;;;;;;;3.83;0.67;;;;;;;-145.18;100.00;46533.44;5074210;28;20172;-72
2022/07/15 07:47:02;;;;;;;5.70;0.90;;;;;;;-145.18;100.00;46531.47;5092334;28;20024;-72
2022/07/15 07:49:27;;;;;;;7.63;1.00;;;;;;;-145.18;100.00;46537.34;5092004;28;20043;-72
2022/07/15 07:51:52;;;;;;;8.00;1.27;;;;;;;-145.18;100.00;46535.38;5092374;28;20454;-72
2022/07/15 07:54:18;;;;;;;8.23;1.10;;;;;;;-145.18;100.00;46535.38;5091877;28;20040;-71
2022/07/15 07:56:45;;;;;;;1.97;0.80;;;;;;;-145.18;100.00;46535.38;5092441;28;20046;-72
2022/07/15 07:59:10;;;;;;;6.87;1.00;;;;;;;-145.18;100.00;46535.38;5091582;28;20035;-72
2022/07/15 08:01:36;;;;;;;5.30;1.20;;;;;;;-145.18;100.00;46535.38;5092388;28;20024;-72
2022/07/15 08:04:02;;;;;;;6.90;1.10;;;;;;;-145.18;100.00;46533.44;5087115;28;20443;-72
2022/07/15 08:06:27;;;;;;;6.03;1.17;;;;;;;-145.18;100.00;46529.53;5071953;28;20547;-72
2022/07/15 08:08:52;;;;;;;5.00;1.13;;;;;;;-145.18;100.00;46537.34;5071621;28;20039;-72
2022/07/15 08:11:19;;;;;;;7.07;1.30;;;;;;;-145.18;100.00;46539.28;5071568;28;20032;-72
2022/07/15 08:13:46;;;;;;;7.67;1.10;;;;;;;-145.18;100.00;46547.09;5071458;28;20043;-72
2022/07/15 08:16:11;;;;;;;8.40;1.33;;;;;;;-145.18;100.00;46545.16;5071550;28;20060;-72
2022/07/15 08:18:37;;;;;;;4.77;0.90;;;;;;;-145.18;100.00;46533.44;5070959;28;20075;-72
2022/07/15 08:21:03;;;;;;;6.03;1.10;;;;;;;-145.18;100.00;46551.00;5071537;28;20392;-72
2022/07/15 08:23:29;;;;;;;3.57;0.70;;;;;;;-145.18;100.00;46551.00;5070855;28;20029;-72
2022/07/15 08:25:55;;;;;;;5.03;0.83;;;;;;;-145.18;100.00;46551.00;5071880;28;20028;-71
2022/07/15 08:28:21;;;;;;;7.97;1.00;;;;;;;-145.18;100.00;46551.00;5070791;28;20047;-72
2022/07/15 08:30:47;;;;;;;6.83;1.10;;;;;;;-145.18;100.00;46554.91;5071776;28;20024;-72
2022/07/15 08:33:13;;;;;;;7.30;1.30;;;;;;;-145.18;100.00;46547.09;5052795;28;20516;-72
2022/07/15 08:35:40;;;;;;;3.73;0.80;;;;;;;-145.18;100.00;46551.00;5071656;28;20039;-72
2022/07/15 08:38:07;;;;;;;6.93;0.77;;;;;;;-145.18;100.00;46551.00;5070533;28;20036;-72
2022/07/15 08:40:37;;;;;;;9.43;0.90;;;;;;;-145.18;100.00;46551.00;5071302;28;20493;-72
2022/07/15 08:43:06;;;;;;;5.87;1.27;;;;;;;-145.18;100.00;46554.91;5070616;28;20047;-71
2022/07/15 08:45:34;;;;;;;5.23;1.50;;;;;;;-145.18;100.00;46543.19;5070968;28;20384;-72
2022/07/15 08:48:02;;;;;;;4.03;0.90;;;;;;;-145.18;100.00;46568.59;5070278;28;20032;-72
2022/07/15 08:50:28;;;;;;;5.37;0.80;;;;;;;-145.18;100.00;46584.22;5070965;28;20021;-72
2022/07/15 08:52:55;;;;;;;2.63;0.80;;;;;;;-145.18;100.00;46609.59;5070930;28;20412;-71
2022/07/15 08:55:20;;;;;;;7.80;0.70;;;;;;;-145.18;100.00;46556.88;5070420;28;20477;-72
2022/07/15 08:57:52;;;;;;;7.73;1.17;;;;;;;-145.18;100.00;46552.97;5070481;28;20035;-71
2022/07/15 09:00:28;;;;;;;6.13;1.10;;;;;;;-145.18;100.00;46554.91;5086604;28;20047;-72
2022/07/15 09:02:55;;;;;;;5.07;1.07;;;;;;;-145.18;100.00;46580.31;5090816;28;20524;-72
2022/07/15 09:05:33;;;;;;;3.90;1.43;;;;;;;-145.18;100.00;46728.75;5074814;28;20093;-72
2022/07/15 09:08:05;;;;;;;3.43;1.03;;;;;;;-145.18;100.00;47215.19;5070714;28;20037;-72
2022/07/15 09:10:41;;;;;;;4.53;0.90;;;;;;;-145.18;100.00;47168.28;5070622;28;20036;-72
2022/07/15 09:13:07;;;;;;;;;;;;;;;-145.18;100.00;47219.09;5069777;28;20036;-72
2022/07/15 09:15:35;;;;;;;3.10;0.93;;;;;;;-145.18;100.00;47168.28;5068900;28;19920;-72
2022/07/15 09:18:15;;;;;;;4.57;0.80;;;;;;;-145.18;100.00;47146.81;5069922;28;20085;-72
2022/07/15 09:20:42;;;;;;;4.87;1.10;;;;;;;-145.18;100.00;47164.38;5070748;28;20020;-72
2022/07/15 09:23:09;;;;;;;2.37;0.60;;;;;;;-145.18;100.00;47168.28;5069043;28;20020;-72
2022/07/15 09:25:37;;;;;;;2.37;0.73;;;;;;;-145.18;100.00;47176.09;5070592;28;20020;-72
2022/07/15 09:28:08;;;;;;;3.60;1.00;;;;;;;-145.18;100.00;47180.03;5070059;28;20036;-72
2022/07/15 09:33:34;;;;;;;4.00;0.77;;;;;;;-145.18;100.00;47170.25;5070154;28;20078;-72
2022/07/15 09:36:20;;;;;;;7.60;0.80;;;;;;;-145.18;100.00;47154.63;5070444;28;20415;-72
2022/07/15 09:38:56;;;;;;;3.88;1.00;;;;;;;-145.18;100.00;47101.88;5069901;28;20060;-72
2022/07/15 09:41:31;;;;;;;;;;;;;;;-145.18;100.00;47113.59;5070043;28;20447;-72
2022/07/15 09:44:03;;;;;;;3.97;0.90;;;;;;;-145.18;100.00;47140.94;5069936;28;19959;-72
2022/07/15 09:46:47;;;;;;;7.23;1.50;;;;;;;-145.18;100.00;47166.34;5070167;28;20285;-72
2022/07/15 09:49:15;;;;;;;2.03;1.00;;;;;;;-145.18;100.00;47119.47;5069704;28;20033;-72
2022/07/15 09:51:49;;;;;;;4.57;1.10;;;;;;;-145.18;100.00;47139.00;5070134;28;20025;-72
2022/07/15 09:54:15;;;;;;;2.23;0.63;;;;;;;-145.18;100.00;47131.19;5069770;28;20027;-72
2022/07/15 09:56:40;;;;;;;2.77;0.70;;;;;;;-145.18;100.00;47090.16;5070189;28;20115;-72
2022/07/15 09:59:08;;;;;;;5.50;1.03;;;;;;;-145.18;100.00;47121.41;5069545;28;20032;-72
2022/07/15 10:01:34;;;;;;;10.67;1.70;;;;;;;-145.18;100.00;47097.97;5069912;28;20021;-72
2022/07/15 10:04:00;;;;;;;2.77;1.07;;;;;;;-145.18;100.00;47062.81;5068954;28;20143;-72
2022/07/15 10:06:27;;;;;;;2.57;0.90;;;;;;;-145.18;100.00;47092.09;5087929;28;20032;-72
2022/07/15 10:08:54;;;;;;;3.07;0.70;;;;;;;-145.18;100.00;47056.94;5089937;28;20480;-72
2022/07/15 10:11:20;;;;;;;3.03;1.07;;;;;;;-145.18;100.00;47113.59;5089916;28;20054;-72
2022/07/15 10:14:03;;;;;;;5.77;0.87;;;;;;;-145.18;100.00;47119.47;5089396;28;20034;-72
2022/07/15 10:16:32;;;;;;;6.27;0.87;;;;;;;-145.18;100.00;47144.84;5090033;28;20430;-72
2022/07/15 10:19:09;;;;;;;1.60;0.73;;;;;;;-145.18;100.00;47152.66;5089608;28;20388;-72
2022/07/15 10:21:53;;;;;;;4.67;0.80;;;;;;;-145.18;100.00;47160.47;5090166;28;20499;-72
2022/07/15 10:24:52;;;;;;;4.30;0.87;;;;;;;-145.18;100.00;47195.66;5089462;28;20549;-72
2022/07/15 10:27:26;;;;;;;4.27;0.80;;;;;;;-145.18;100.00;47178.06;5085429;28;20032;-71
2022/07/15 10:29:52;;;;;;;4.93;0.90;;;;;;;-145.18;100.00;47164.38;5070378;28;20060;-72
2022/07/15 10:32:17;;;;;;;6.20;1.20;;;;;;;-145.18;100.00;47162.44;5073900;28;20035;-72
2022/07/15 10:34:43;;;;;;;3.27;0.80;;;;;;;-145.18;100.00;47137.03;5079124;28;20044;-72
2022/07/15 10:37:10;;;;;;;1.93;0.80;;;;;;;-145.18;100.00;47135.09;5088919;28;20444;-71
2022/07/15 10:40:06;;;;;;;2.40;0.80;;;;;;;-145.18;100.00;47142.91;5089282;28;20047;-72
2022/07/15 10:42:59;;;;;;;4.47;0.80;;;;;;;-145.18;100.00;47187.84;5090350;28;20024;-72
2022/07/15 10:45:24;;;;;;;3.67;0.80;;;;;;;-145.18;100.00;47197.59;5092747;28;20381;-72
2022/07/15 10:48:24;;;;;;;3.90;0.80;;;;;;;-145.18;100.00;47193.69;5093671;28;20092;-72
2022/07/15 10:50:50;;;;;;;3.53;0.87;;;;;;;-145.18;100.00;47228.84;5093449;28;20110;-72
2022/07/15 10:53:19;;;;;;;4.10;0.83;;;;;;;-145.18;100.00;47174.16;5093138;28;20035;-72
2022/07/15 10:55:44;;;;;;;10.30;1.13;;;;;;;-145.18;100.00;47189.78;5093110;28;20039;-72
2022/07/15 10:58:12;;;;;;;2.53;0.87;;;;;;;-145.18;100.00;47230.81;5093313;28;20024;-72
2022/07/15 11:00:37;;;;;;;3.93;1.00;;;;;;;-145.18;100.00;47156.56;5092392;28;20039;-72
2022/07/15 11:03:05;;;;;;;2.73;0.80;;;;;;;-145.18;100.00;47060.84;5092775;28;20051;-72
2022/07/15 11:05:31;;;;;;;4.03;1.17;;;;;;;-145.18;100.00;47076.47;5092506;28;20039;-72
2022/07/15 11:07:57;;;;;;;3.27;1.03;;;;;;;-145.18;100.00;47025.69;5093220;28;20024;-72
2022/07/15 11:10:23;;;;;;;7.70;1.30;;;;;;;-145.18;100.00;47017.88;5092789;28;20036;-73
2022/07/15 11:12:48;;;;;;;4.57;1.10;;;;;;;-145.18;100.00;46982.72;5093092;28;20492;-73
2022/07/15 11:15:16;;;;;;;4.77;1.03;;;;;;;-145.18;100.00;46988.56;5091656;28;20059;-72